Terminal Aerodrome Forecast
Issued by NWS

Home | Current Version | Previous Version | Text Only | Print | Product List | Glossary On
Versions: 1 2 3 4 5 6 7 8 9 10 11 12 13 14 15 16
000
FTUS46 KSEW 232300
TAFBLI
TAF
KBLI 232320Z 2400/2424 16010G14KT P6SM BKN090 OVC150
     FM240400 10007G17KT P6SM -RA BKN025 OVC050
     FM241000 13005KT P6SM -RA OVC025
     FM241900 17009KT P6SM VCSH SCT025 BKN050=

USA.gov is the U.S. government's official web portal to all federal, state and local government web resources and services.